createdAt,value
2023-05-03T00:01:37.448Z,3.37
2023-05-03T00:03:40.202Z,3.17
2023-05-03T00:05:43.152Z,3.10
2023-05-03T00:07:46.998Z,3.10
2023-05-03T00:09:50.064Z,2.97
2023-05-03T00:11:53.413Z,2.60
2023-05-03T00:13:56.169Z,2.70
2023-05-03T00:16:00.271Z,2.67
2023-05-03T00:18:03.168Z,3.37
2023-05-03T00:20:08.152Z,3.00
2023-05-03T00:22:12.600Z,3.13
2023-05-03T00:24:15.340Z,2.93
2023-05-03T00:26:18.147Z,2.73
2023-05-03T00:28:21.133Z,2.90
2023-05-03T00:30:25.606Z,3.07
2023-05-03T00:32:30.810Z,2.53
2023-05-03T00:34:33.591Z,2.47
2023-05-03T00:36:37.253Z,2.90
2023-05-03T00:38:41.498Z,2.60
2023-05-03T00:40:44.359Z,2.60
2023-05-03T00:42:47.175Z,2.50
2023-05-03T00:44:49.956Z,2.50
2023-05-03T00:46:52.909Z,3.07
2023-05-03T00:48:57.137Z,2.60
2023-05-03T00:51:01.183Z,2.80
2023-05-03T00:53:03.991Z,2.80
2023-05-03T00:55:08.491Z,2.80
2023-05-03T00:57:11.890Z,2.90
2023-05-03T00:59:14.676Z,2.63
2023-05-03T01:01:18.140Z,2.43
2023-05-03T01:03:21.007Z,2.60
2023-05-03T01:05:27.010Z,2.87
2023-05-03T01:07:39.076Z,2.50
2023-05-03T01:09:50.236Z,2.67
2023-05-03T01:12:02.880Z,2.30
2023-05-03T01:14:11.567Z,2.60
2023-05-03T01:16:19.843Z,2.57
2023-05-03T01:18:29.683Z,2.50
2023-05-03T01:20:37.560Z,2.70
2023-05-03T01:22:47.612Z,2.70
2023-05-03T01:24:53.627Z,2.80
2023-05-03T01:26:57.859Z,2.60
2023-05-03T01:29:04.423Z,2.97
2023-05-03T01:31:07.420Z,2.70
2023-05-03T01:33:14.635Z,2.73
2023-05-03T01:35:24.209Z,2.90
2023-05-03T01:37:27.025Z,3.00
2023-05-03T01:39:34.162Z,2.77
2023-05-03T01:41:38.019Z,2.60
2023-05-03T01:43:42.916Z,2.40
2023-05-03T01:45:46.108Z,2.70
2023-05-03T01:47:48.881Z,2.73
2023-05-03T01:49:51.645Z,2.53
2023-05-03T01:51:54.329Z,3.10
2023-05-03T01:53:57.106Z,2.50
2023-05-03T01:55:59.962Z,2.60
2023-05-03T01:58:02.869Z,2.50
2023-05-03T02:00:09.860Z,2.30
2023-05-03T02:02:12.616Z,3.03
2023-05-03T02:04:15.512Z,2.80
2023-05-03T02:06:18.315Z,2.90
2023-05-03T02:08:21.028Z,2.50
2023-05-03T02:10:24.018Z,2.60
2023-05-03T02:12:26.738Z,2.73
2023-05-03T02:14:29.485Z,2.37
2023-05-03T02:16:33.604Z,2.47
2023-05-03T02:18:36.833Z,2.30
2023-05-03T02:20:39.697Z,2.53
2023-05-03T02:22:43.073Z,2.70
2023-05-03T02:24:45.909Z,2.40
2023-05-03T02:26:48.749Z,2.67
2023-05-03T02:28:51.568Z,2.50
2023-05-03T02:30:54.374Z,2.47
2023-05-03T02:32:58.523Z,2.43
2023-05-03T02:35:01.781Z,2.50
2023-05-03T02:37:05.275Z,2.70
2023-05-03T02:39:08.029Z,2.70
2023-05-03T02:41:10.783Z,2.70
2023-05-03T02:43:13.524Z,2.50
2023-05-03T02:45:16.348Z,2.10
2023-05-03T02:47:19.167Z,2.33
2023-05-03T02:49:23.594Z,2.17
2023-05-03T02:51:27.379Z,2.37
2023-05-03T02:53:30.193Z,2.70
2023-05-03T02:55:32.965Z,2.40
2023-05-03T02:57:35.955Z,2.57
2023-05-03T02:59:38.762Z,2.70
2023-05-03T03:01:41.503Z,2.57
2023-05-03T03:03:44.340Z,2.90
2023-05-03T03:05:48.709Z,2.50
2023-05-03T03:07:51.650Z,2.50
2023-05-03T03:09:54.484Z,2.50
2023-05-03T03:11:57.526Z,2.50
2023-05-03T03:14:00.229Z,2.40
2023-05-03T03:16:03.454Z,2.30
2023-05-03T03:18:06.609Z,2.53
2023-05-03T03:20:11.670Z,2.40
2023-05-03T03:22:15.748Z,2.40
2023-05-03T03:24:18.576Z,2.70
2023-05-03T03:26:21.345Z,2.60
2023-05-03T03:28:24.068Z,2.27
2023-05-03T03:30:26.850Z,2.40
2023-05-03T03:32:29.619Z,3.00
2023-05-03T03:34:33.061Z,2.43
2023-05-03T03:36:37.970Z,2.63
2023-05-03T03:38:42.065Z,3.10
2023-05-03T03:40:44.945Z,3.10
2023-05-03T03:42:47.681Z,3.20
2023-05-03T03:44:50.632Z,2.87
2023-05-03T03:46:53.451Z,2.77
2023-05-03T03:48:56.222Z,2.90
2023-05-03T03:50:59.099Z,3.00
2023-05-03T03:53:01.824Z,3.13
2023-05-03T03:55:06.510Z,2.77
2023-05-03T03:57:09.248Z,3.33
2023-05-03T03:59:11.959Z,3.20
2023-05-03T04:01:14.778Z,3.23
2023-05-03T04:03:17.690Z,3.53
2023-05-03T04:05:20.700Z,3.50
2023-05-03T04:07:23.456Z,3.23
2023-05-03T04:09:26.197Z,3.70
2023-05-03T04:11:30.651Z,3.93
2023-05-03T04:13:33.442Z,4.10
2023-05-03T04:15:36.268Z,3.87
2023-05-03T04:17:39.056Z,4.47
2023-05-03T04:19:41.913Z,4.37
2023-05-03T04:21:44.610Z,6.97
2023-05-03T04:23:47.348Z,9.20
2023-05-03T04:25:50.142Z,7.63
2023-05-03T04:27:54.374Z,6.70
2023-05-03T04:29:57.912Z,6.60
2023-05-03T04:32:01.312Z,7.80
2023-05-03T04:34:04.106Z,8.10
2023-05-03T04:36:07.749Z,7.70
2023-05-03T04:38:10.841Z,7.90
2023-05-03T04:40:13.904Z,7.20
2023-05-03T04:42:16.672Z,7.20
2023-05-03T04:44:21.164Z,7.60
2023-05-03T04:46:24.026Z,6.30
2023-05-03T04:48:26.864Z,6.23
2023-05-03T04:50:29.619Z,5.40
2023-05-03T04:52:32.794Z,5.60
2023-05-03T04:54:35.558Z,3.80
2023-05-03T04:56:38.333Z,3.00
2023-05-03T04:58:41.322Z,3.33
2023-05-03T05:00:46.542Z,3.93
2023-05-03T05:02:49.409Z,3.33
2023-05-03T05:04:52.208Z,4.10
2023-05-03T05:06:55.591Z,3.90
2023-05-03T05:08:58.369Z,3.43
2023-05-03T05:11:03.663Z,3.83
2023-05-03T05:13:06.511Z,4.20
2023-05-03T05:15:10.124Z,3.80
2023-05-03T05:17:14.258Z,3.63
2023-05-03T05:19:17.083Z,3.77
2023-05-03T05:21:20.284Z,3.63
2023-05-03T05:23:23.059Z,3.83
2023-05-03T05:25:26.142Z,3.77
2023-05-03T05:27:29.001Z,3.90
2023-05-03T05:29:31.709Z,4.20
2023-05-03T05:31:35.108Z,3.80
2023-05-03T05:33:39.324Z,3.73
2023-05-03T05:35:42.123Z,3.50
2023-05-03T05:37:44.930Z,4.20
2023-05-03T05:39:47.834Z,4.10
2023-05-03T05:41:50.740Z,4.17
2023-05-03T05:43:53.565Z,4.53
2023-05-03T05:45:56.343Z,3.93
2023-05-03T05:47:59.182Z,4.03
2023-05-03T05:50:09.648Z,3.97
2023-05-03T05:52:15.106Z,4.03
2023-05-03T05:54:17.878Z,3.50
2023-05-03T05:56:21.596Z,3.67
2023-05-03T05:58:24.394Z,3.83
2023-05-03T06:00:27.214Z,3.60
2023-05-03T06:02:30.056Z,3.43
2023-05-03T06:04:32.901Z,3.77
2023-05-03T06:06:37.319Z,3.40
2023-05-03T06:08:40.547Z,3.30
2023-05-03T06:10:43.680Z,4.13
2023-05-03T06:12:46.449Z,3.23
2023-05-03T06:15:01.266Z,3.20
2023-05-03T06:17:05.034Z,3.47
2023-05-03T06:19:07.843Z,3.10
2023-05-03T06:21:11.454Z,4.30
2023-05-03T06:23:15.910Z,5.27
2023-05-03T06:25:18.793Z,4.50
2023-05-03T06:27:21.609Z,4.63
2023-05-03T06:29:24.411Z,3.93
2023-05-03T06:31:27.180Z,3.27
2023-05-03T06:33:30.040Z,3.40
2023-05-03T06:35:33.014Z,3.40
2023-05-03T06:37:35.908Z,2.93
2023-05-03T06:39:39.991Z,3.27
2023-05-03T06:41:42.773Z,3.30
2023-05-03T06:43:45.658Z,3.50
2023-05-03T06:45:48.468Z,2.37
2023-05-03T06:47:51.297Z,2.30
2023-05-03T06:49:54.439Z,2.70
2023-05-03T06:51:57.200Z,2.50
2023-05-03T06:54:06.558Z,2.33
2023-05-03T06:56:10.756Z,2.30
2023-05-03T06:58:14.690Z,2.10
2023-05-03T07:00:18.230Z,1.80
2023-05-03T07:02:21.198Z,2.30
2023-05-03T07:04:23.990Z,2.37
2023-05-03T07:06:26.947Z,2.33
2023-05-03T07:08:29.756Z,1.77
2023-05-03T07:10:32.506Z,1.77
2023-05-03T07:12:36.644Z,1.70
2023-05-03T07:14:39.689Z,2.03
2023-05-03T07:16:42.921Z,1.63
2023-05-03T07:18:46.187Z,1.60
2023-05-03T07:20:49.051Z,1.80
2023-05-03T07:22:52.053Z,1.80
2023-05-03T07:24:57.325Z,1.60
2023-05-03T07:27:00.228Z,1.77
2023-05-03T07:29:04.389Z,1.70
2023-05-03T07:31:07.189Z,1.90
2023-05-03T07:33:09.948Z,1.90
2023-05-03T07:35:12.797Z,1.63
2023-05-03T07:37:15.563Z,1.60
2023-05-03T07:39:18.606Z,1.43
2023-05-03T07:41:21.365Z,2.07
2023-05-03T07:43:24.486Z,1.70
2023-05-03T07:45:28.716Z,2.23
2023-05-03T07:47:32.798Z,1.90
2023-05-03T07:49:36.449Z,2.00
2023-05-03T07:51:39.914Z,1.90
2023-05-03T07:53:42.803Z,1.90
2023-05-03T07:55:45.886Z,1.80
2023-05-03T07:57:48.664Z,1.50
2023-05-03T07:59:51.675Z,1.70
2023-05-03T08:01:55.951Z,1.73
2023-05-03T08:03:59.385Z,1.60
2023-05-03T08:06:02.466Z,1.60
2023-05-03T08:08:05.648Z,1.70
2023-05-03T08:10:09.476Z,1.70
2023-05-03T08:12:12.228Z,1.90
2023-05-03T08:14:14.997Z,1.60
2023-05-03T08:16:17.824Z,2.00
2023-05-03T08:18:23.691Z,1.80
2023-05-03T08:20:27.270Z,2.00
2023-05-03T08:22:30.479Z,2.03
2023-05-03T08:24:33.294Z,1.90
2023-05-03T08:26:36.698Z,1.83
2023-05-03T08:28:39.699Z,1.93
2023-05-03T08:30:42.484Z,1.93
2023-05-03T08:32:45.316Z,1.90
2023-05-03T08:34:50.553Z,1.73
2023-05-03T08:36:53.357Z,1.90
2023-05-03T08:38:56.104Z,1.87
2023-05-03T08:41:05.941Z,1.70
2023-05-03T08:43:10.561Z,1.90
2023-05-03T08:45:15.895Z,2.23
2023-05-03T08:47:18.802Z,1.93
2023-05-03T08:49:22.428Z,1.73
2023-05-03T08:51:27.698Z,1.80
2023-05-03T08:53:31.179Z,1.83
2023-05-03T08:55:33.986Z,1.90
2023-05-03T08:57:37.103Z,1.70
2023-05-03T08:59:49.813Z,1.80
2023-05-03T09:01:54.973Z,1.73
2023-05-03T09:03:58.067Z,1.70
2023-05-03T09:06:02.279Z,1.90
2023-05-03T09:08:08.401Z,1.87
2023-05-03T09:10:23.865Z,1.50
2023-05-03T09:12:36.735Z,1.50
2023-05-03T09:14:46.766Z,1.77
2023-05-03T09:16:49.569Z,1.80
2023-05-03T09:18:59.599Z,1.43
2023-05-03T09:21:02.355Z,1.70
2023-05-03T09:23:08.024Z,1.70
2023-05-03T09:25:12.152Z,1.70
2023-05-03T09:27:21.287Z,1.60
2023-05-03T09:29:31.761Z,1.90
2023-05-03T09:31:35.645Z,1.70
2023-05-03T09:33:38.479Z,1.73
2023-05-03T09:35:57.304Z,2.00
2023-05-03T09:38:00.371Z,1.80
2023-05-03T09:40:10.219Z,1.90
2023-05-03T09:42:14.966Z,1.73
2023-05-03T09:44:18.228Z,1.83
2023-05-03T09:46:21.465Z,1.90
2023-05-03T09:48:27.767Z,1.87
2023-05-03T09:50:32.306Z,1.77
2023-05-03T09:52:35.650Z,1.67
2023-05-03T09:54:38.899Z,1.80
2023-05-03T09:56:44.785Z,1.50
2023-05-03T09:58:47.788Z,1.83
2023-05-03T10:00:52.587Z,1.80
2023-05-03T10:02:58.132Z,1.80
2023-05-03T10:05:01.436Z,1.70
2023-05-03T10:07:10.053Z,1.60
2023-05-03T10:09:16.801Z,1.93
2023-05-03T10:11:19.894Z,2.00
2023-05-03T10:13:24.794Z,1.87
2023-05-03T10:15:28.698Z,1.60
2023-05-03T10:17:47.197Z,1.80
2023-05-03T10:19:54.629Z,1.40
2023-05-03T10:22:04.703Z,1.70
2023-05-03T10:24:12.613Z,1.97
2023-05-03T10:26:16.267Z,2.20
2023-05-03T10:28:20.202Z,1.73
2023-05-03T10:30:32.573Z,2.00
2023-05-03T10:32:37.380Z,1.63
2023-05-03T10:34:40.755Z,1.70
2023-05-03T10:36:49.712Z,1.70
2023-05-03T10:38:54.235Z,1.50
2023-05-03T10:40:58.957Z,1.90
2023-05-03T10:43:01.837Z,2.00
2023-05-03T10:45:07.123Z,2.20
2023-05-03T10:47:16.133Z,1.97
2023-05-03T10:49:20.762Z,1.70
2023-05-03T10:51:37.305Z,1.70
2023-05-03T10:53:43.344Z,1.40
2023-05-03T10:56:05.939Z,1.70
2023-05-03T10:58:15.184Z,1.50
2023-05-03T11:00:23.555Z,1.57
2023-05-03T11:02:34.311Z,1.70
2023-05-03T11:04:42.822Z,1.50
2023-05-03T11:06:49.559Z,1.57
2023-05-03T11:08:52.480Z,1.70
2023-05-03T11:10:59.214Z,1.60
2023-05-03T11:13:02.437Z,1.60
2023-05-03T11:15:05.855Z,1.50
2023-05-03T11:17:09.136Z,1.67
2023-05-03T11:19:13.623Z,1.50
2023-05-03T11:21:16.772Z,1.40
2023-05-03T11:23:19.595Z,1.30
2023-05-03T11:25:22.350Z,1.60
2023-05-03T11:27:25.485Z,1.80
2023-05-03T11:29:28.657Z,1.47
2023-05-03T11:31:31.948Z,1.43
2023-05-03T11:33:35.629Z,1.60
2023-05-03T11:35:40.650Z,1.37
2023-05-03T11:37:44.270Z,1.40
2023-05-03T11:39:47.841Z,1.50
2023-05-03T11:42:04.363Z,1.40
2023-05-03T11:44:15.966Z,1.40
2023-05-03T11:46:24.324Z,1.60
2023-05-03T11:48:30.534Z,1.60
2023-05-03T11:50:47.852Z,1.60
2023-05-03T11:52:51.017Z,1.70
2023-05-03T11:54:53.740Z,1.63
2023-05-03T11:56:59.050Z,1.43
2023-05-03T11:59:02.202Z,1.53
2023-05-03T12:01:05.882Z,1.80
2023-05-03T12:03:10.747Z,1.40
2023-05-03T12:05:14.515Z,1.30
2023-05-03T12:07:21.611Z,1.57
2023-05-03T12:09:27.407Z,1.63
2023-05-03T12:11:33.459Z,1.60
2023-05-03T12:13:40.678Z,1.50
2023-05-03T12:15:50.517Z,1.47
2023-05-03T12:18:00.677Z,1.50
2023-05-03T12:20:51.785Z,1.40
2023-05-03T12:22:44.506Z,2.30
2023-05-03T12:24:49.642Z,1.77
2023-05-03T12:26:53.168Z,1.30
2023-05-03T12:28:57.215Z,1.40
2023-05-03T12:31:00.238Z,1.30
2023-05-03T12:33:04.952Z,1.40
2023-05-03T12:35:11.419Z,1.10
2023-05-03T12:37:17.350Z,1.27
2023-05-03T12:39:22.168Z,1.40
2023-05-03T12:42:04.709Z,1.57
2023-05-03T12:43:52.536Z,1.67
2023-05-03T12:46:17.018Z,1.20
2023-05-03T12:48:19.691Z,1.60
2023-05-03T12:50:24.753Z,1.60
2023-05-03T12:54:35.192Z,1.57
2023-05-03T12:56:40.133Z,1.47
2023-05-03T12:59:07.478Z,1.40
2023-05-03T13:05:28.613Z,1.80
2023-05-03T13:07:42.481Z,1.70
2023-05-03T13:11:53.598Z,1.40
2023-05-03T13:13:56.524Z,1.50
2023-05-03T13:15:59.803Z,1.20
2023-05-03T13:18:04.767Z,1.73
2023-05-03T13:20:10.793Z,1.30
2023-05-03T13:22:14.055Z,1.40
2023-05-03T13:24:16.822Z,1.33
2023-05-03T13:26:21.174Z,1.47
2023-05-03T13:28:27.253Z,1.40
2023-05-03T13:30:30.869Z,1.70
2023-05-03T13:32:34.274Z,1.67
2023-05-03T13:34:37.542Z,1.37
2023-05-03T13:36:40.366Z,1.50
2023-05-03T13:38:43.123Z,1.30
2023-05-03T13:40:45.897Z,1.43
2023-05-03T13:42:49.958Z,1.40
2023-05-03T13:44:52.688Z,1.50
2023-05-03T13:46:55.660Z,1.50
2023-05-03T13:48:58.670Z,1.60
2023-05-03T13:51:01.860Z,1.20
2023-05-03T13:53:04.665Z,1.47
2023-05-03T13:55:08.625Z,1.70
2023-05-03T13:57:11.387Z,1.40
2023-05-03T13:59:15.624Z,1.67
2023-05-03T14:01:18.866Z,1.40
2023-05-03T14:03:21.846Z,1.57
2023-05-03T14:05:24.689Z,1.50
2023-05-03T14:07:27.436Z,1.43
2023-05-03T14:09:30.688Z,1.53
2023-05-03T14:11:33.864Z,1.30
2023-05-03T14:13:53.949Z,1.50
2023-05-03T14:15:59.436Z,1.73
2023-05-03T14:18:04.862Z,1.10
2023-05-03T14:20:11.963Z,1.60
2023-05-03T14:22:14.795Z,1.40
2023-05-03T14:24:17.991Z,1.63
2023-05-03T14:26:21.975Z,1.40
2023-05-03T14:28:36.270Z,1.57
2023-05-03T14:30:39.187Z,1.43
2023-05-03T14:32:43.392Z,1.40
2023-05-03T14:34:46.154Z,1.57
2023-05-03T14:36:48.973Z,1.40
2023-05-03T14:38:51.691Z,1.30
2023-05-03T14:40:54.525Z,1.17
2023-05-03T14:42:57.635Z,1.40
2023-05-03T14:45:00.825Z,1.20
2023-05-03T14:47:04.361Z,1.35
2023-05-03T14:49:08.558Z,1.77
2023-05-03T14:51:11.345Z,1.38
2023-05-03T14:53:14.074Z,1.60
2023-05-03T14:55:17.365Z,1.73
2023-05-03T14:57:23.205Z,1.60
2023-05-03T14:59:25.983Z,1.65
2023-05-03T15:01:28.805Z,1.60
2023-05-03T15:03:31.846Z,3.10
2023-05-03T15:05:36.290Z,1.50
2023-05-03T15:07:38.986Z,1.30
2023-05-03T15:09:41.872Z,1.50
2023-05-03T15:11:45.563Z,1.83
2023-05-03T15:13:48.654Z,1.70
2023-05-03T15:15:52.127Z,1.55
2023-05-03T15:17:54.918Z,1.73
2023-05-03T15:19:57.671Z,1.67
2023-05-03T15:22:01.792Z,1.50
2023-05-03T15:24:04.871Z,1.50
2023-05-03T15:26:07.690Z,1.55
2023-05-03T15:28:10.420Z,1.60
2023-05-03T15:30:14.810Z,1.58
2023-05-03T15:32:24.656Z,1.70
2023-05-03T15:34:33.017Z,1.65
2023-05-03T15:36:37.684Z,1.30
2023-05-03T15:38:42.093Z,1.50
2023-05-03T15:40:44.966Z,1.40
2023-05-03T15:42:47.756Z,1.30
2023-05-03T15:44:51.532Z,1.42
2023-05-03T15:46:54.533Z,1.40
2023-05-03T15:48:57.437Z,1.27
2023-05-03T15:51:00.437Z,1.30
2023-05-03T15:53:03.785Z,1.52
2023-05-03T15:55:10.413Z,1.20
2023-05-03T15:57:13.850Z,1.50
2023-05-03T15:59:16.597Z,1.20
2023-05-03T16:01:19.615Z,1.25
2023-05-03T16:03:22.710Z,1.45
2023-05-03T16:05:25.515Z,1.25
2023-05-03T16:07:28.613Z,1.23
2023-05-03T16:09:31.524Z,0.98
2023-05-03T16:11:35.880Z,1.17
2023-05-03T16:13:38.619Z,1.30
2023-05-03T16:15:41.391Z,1.52
2023-05-03T16:17:44.139Z,1.60
2023-05-03T16:19:46.906Z,1.95
2023-05-03T16:21:49.731Z,1.67
2023-05-03T16:23:54.517Z,1.40
2023-05-03T16:25:57.832Z,1.50
2023-05-03T16:28:01.998Z,1.80
2023-05-03T16:30:05.603Z,1.70
2023-05-03T16:32:09.783Z,1.42
2023-05-03T16:34:12.884Z,1.67
2023-05-03T16:36:15.731Z,1.70
2023-05-03T16:38:18.496Z,1.58
2023-05-03T16:40:33.452Z,1.70
2023-05-03T16:42:36.365Z,1.70
2023-05-03T16:44:40.407Z,1.60
2023-05-03T16:46:43.361Z,1.83
2023-05-03T16:48:46.116Z,1.63
2023-05-03T16:50:48.847Z,1.65
2023-05-03T16:52:51.702Z,1.70
2023-05-03T16:54:54.428Z,1.20
2023-05-03T16:56:57.516Z,1.45
2023-05-03T16:59:00.373Z,1.70
2023-05-03T17:01:04.545Z,1.60
2023-05-03T17:03:08.469Z,1.70
2023-05-03T17:05:21.252Z,1.50
2023-05-03T17:07:24.025Z,1.67
2023-05-03T17:09:27.026Z,1.60
2023-05-03T17:11:29.805Z,1.65
2023-05-03T17:13:32.700Z,1.60
2023-05-03T17:15:35.920Z,1.40
2023-05-03T17:17:40.406Z,1.80
2023-05-03T17:19:43.199Z,1.50
2023-05-03T17:21:45.920Z,1.65
2023-05-03T17:23:48.649Z,1.50
2023-05-03T17:25:58.100Z,1.60
2023-05-03T17:28:00.878Z,1.65
2023-05-03T17:30:04.420Z,1.58
2023-05-03T17:32:07.422Z,1.70
2023-05-03T17:34:11.529Z,1.48
2023-05-03T17:36:14.344Z,1.42
2023-05-03T17:38:17.127Z,1.75
2023-05-03T17:40:19.949Z,1.42
2023-05-03T17:42:22.761Z,1.45
2023-05-03T17:44:26.224Z,1.90
2023-05-03T17:46:29.611Z,1.80
2023-05-03T17:48:32.391Z,1.90
2023-05-03T17:50:37.318Z,1.90
2023-05-03T17:52:40.469Z,1.80
2023-05-03T17:54:43.297Z,2.45
2023-05-03T17:56:46.684Z,1.90
2023-05-03T17:58:49.566Z,1.70
2023-05-03T18:00:52.674Z,1.80
2023-05-03T18:02:56.139Z,1.70
2023-05-03T18:04:58.990Z,1.50
2023-05-03T18:07:03.135Z,1.40
2023-05-03T18:09:07.124Z,1.50
2023-05-03T18:11:10.233Z,1.70
2023-05-03T18:13:13.299Z,1.40
2023-05-03T18:15:16.522Z,1.70
2023-05-03T18:17:19.398Z,1.60
2023-05-03T18:19:22.492Z,1.60
2023-05-03T18:21:25.258Z,1.60
2023-05-03T18:23:30.249Z,1.77
2023-05-03T18:25:33.117Z,1.53
2023-05-03T18:27:37.596Z,1.87
2023-05-03T18:29:40.673Z,1.80
2023-05-03T18:31:43.495Z,1.83
2023-05-03T18:33:46.766Z,1.97
2023-05-03T18:35:50.100Z,2.20
2023-05-03T18:37:53.317Z,3.00
2023-05-03T18:39:57.440Z,2.37
2023-05-03T18:42:00.352Z,2.40
2023-05-03T18:44:04.843Z,2.00
2023-05-03T18:46:08.304Z,2.37
2023-05-03T18:48:11.965Z,2.20
2023-05-03T18:50:15.029Z,1.90
2023-05-03T18:52:17.846Z,2.13
2023-05-03T18:54:20.658Z,3.80
2023-05-03T18:56:24.684Z,4.53
2023-05-03T18:58:27.465Z,6.10
2023-05-03T19:00:30.212Z,9.50
2023-05-03T19:02:33.136Z,9.30
2023-05-03T19:04:35.973Z,8.63
2023-05-03T19:06:38.912Z,7.57
2023-05-03T19:08:43.584Z,4.73
2023-05-03T19:10:46.296Z,3.60
2023-05-03T19:12:52.818Z,3.30
2023-05-03T19:14:55.597Z,2.87
2023-05-03T19:16:58.456Z,2.50
2023-05-03T19:19:01.491Z,2.70
2023-05-03T19:21:04.777Z,2.40
2023-05-03T19:23:07.570Z,2.43
2023-05-03T19:25:10.823Z,2.70
2023-05-03T19:27:13.683Z,2.30
2023-05-03T19:29:17.786Z,2.73
2023-05-03T19:31:20.668Z,3.13
2023-05-03T19:33:23.527Z,2.83
2023-05-03T19:35:26.367Z,2.50
2023-05-03T19:37:29.120Z,2.80
2023-05-03T19:39:35.546Z,3.07
2023-05-03T19:41:38.633Z,2.53
2023-05-03T19:43:42.108Z,2.67
2023-05-03T19:45:46.275Z,2.80
2023-05-03T19:47:49.219Z,2.83
2023-05-03T19:49:52.091Z,2.90
2023-05-03T19:51:55.909Z,2.67
2023-05-03T19:53:58.693Z,2.63
2023-05-03T19:56:03.970Z,3.73
2023-05-03T19:58:07.398Z,4.80
2023-05-03T20:00:11.704Z,7.87
2023-05-03T20:02:16.526Z,5.27
2023-05-03T20:04:19.352Z,4.33
2023-05-03T20:06:22.345Z,5.43
2023-05-03T20:08:25.279Z,3.80
2023-05-03T20:10:28.249Z,3.50
2023-05-03T20:12:31.052Z,3.20
2023-05-03T20:14:33.792Z,2.73
2023-05-03T20:16:39.088Z,3.60
2023-05-03T20:18:43.561Z,2.90
2023-05-03T20:20:46.307Z,3.00
2023-05-03T20:22:49.843Z,3.17
2023-05-03T20:24:52.730Z,2.90
2023-05-03T20:26:55.624Z,2.97
2023-05-03T20:28:58.380Z,3.10
2023-05-03T20:31:01.108Z,2.93
2023-05-03T20:33:04.368Z,2.87
2023-05-03T20:35:10.424Z,2.80
2023-05-03T20:37:13.116Z,3.10
2023-05-03T20:39:15.865Z,2.80
2023-05-03T20:41:18.871Z,2.67
2023-05-03T20:43:21.633Z,3.10
2023-05-03T20:45:24.367Z,3.17
2023-05-03T20:47:27.739Z,3.13
2023-05-03T20:49:31.128Z,3.57
2023-05-03T20:51:35.349Z,3.80
2023-05-03T20:53:38.115Z,3.50
2023-05-03T20:55:40.868Z,2.97
2023-05-03T20:57:43.963Z,3.00
2023-05-03T20:59:46.825Z,3.40
2023-05-03T21:01:49.633Z,3.10
2023-05-03T21:03:52.376Z,3.10
2023-05-03T21:05:56.408Z,3.07
2023-05-03T21:08:00.513Z,3.10
2023-05-03T21:10:03.576Z,3.30
2023-05-03T21:12:07.042Z,3.23
2023-05-03T21:14:09.854Z,2.97
2023-05-03T21:16:12.632Z,3.13
2023-05-03T21:18:15.840Z,3.07
2023-05-03T21:20:18.869Z,3.03
2023-05-03T21:22:21.693Z,2.97
2023-05-03T21:24:27.430Z,3.27
2023-05-03T21:26:30.413Z,3.00
2023-05-03T21:28:33.600Z,3.00
2023-05-03T21:30:36.381Z,3.17
2023-05-03T21:32:39.252Z,3.40
2023-05-03T21:34:42.126Z,3.07
2023-05-03T21:36:44.988Z,3.77
2023-05-03T21:38:52.218Z,3.20
2023-05-03T21:41:05.148Z,3.40
2023-05-03T21:43:09.166Z,3.10
2023-05-03T21:45:12.909Z,3.20
2023-05-03T21:47:15.735Z,3.60
2023-05-03T21:49:18.576Z,3.53
2023-05-03T21:51:21.924Z,3.60
2023-05-03T21:53:24.675Z,3.37
2023-05-03T21:55:27.508Z,3.03
2023-05-03T21:57:32.999Z,3.23
2023-05-03T21:59:35.949Z,3.47
2023-05-03T22:01:39.017Z,3.47
2023-05-03T22:03:41.974Z,3.87
2023-05-03T22:05:47.723Z,3.67
2023-05-03T22:07:50.672Z,3.80
2023-05-03T22:09:53.408Z,4.00
2023-05-03T22:11:56.142Z,3.87
2023-05-03T22:14:07.619Z,3.50
2023-05-03T22:16:12.460Z,4.20
2023-05-03T22:18:15.669Z,4.17
2023-05-03T22:20:18.422Z,3.87
2023-05-03T22:22:21.168Z,3.80
2023-05-03T22:24:24.100Z,3.90
2023-05-03T22:26:26.950Z,3.70
2023-05-03T22:28:29.984Z,4.50
2023-05-03T22:30:34.034Z,3.87
2023-05-03T22:32:36.993Z,4.00
2023-05-03T22:34:39.847Z,4.20
2023-05-03T22:36:42.617Z,4.17
2023-05-03T22:38:45.357Z,4.07
2023-05-03T22:40:48.312Z,4.00
2023-05-03T22:42:51.451Z,4.07
2023-05-03T22:44:55.797Z,4.10
2023-05-03T22:47:01.090Z,4.40
2023-05-03T22:49:04.227Z,4.40
2023-05-03T22:51:07.091Z,4.63
2023-05-03T22:53:09.895Z,4.43
2023-05-03T22:55:13.035Z,4.13
2023-05-03T22:57:15.888Z,4.00
2023-05-03T22:59:18.747Z,3.93
2023-05-03T23:01:21.579Z,4.80
2023-05-03T23:03:27.014Z,4.30
2023-05-03T23:05:30.392Z,4.50
2023-05-03T23:07:33.177Z,4.03
2023-05-03T23:09:35.911Z,4.33
2023-05-03T23:11:38.760Z,4.50
2023-05-03T23:13:41.557Z,4.70
2023-05-03T23:15:44.654Z,4.80
2023-05-03T23:17:47.604Z,4.67
2023-05-03T23:19:51.856Z,4.87
2023-05-03T23:21:54.870Z,4.73
2023-05-03T23:23:57.626Z,5.07
2023-05-03T23:26:00.521Z,5.27
2023-05-03T23:28:03.824Z,5.07
2023-05-03T23:30:08.951Z,5.67
2023-05-03T23:32:12.272Z,5.00
2023-05-03T23:34:15.371Z,4.53
2023-05-03T23:36:19.488Z,4.70
2023-05-03T23:38:22.276Z,5.57
2023-05-03T23:40:25.043Z,4.80
2023-05-03T23:42:28.130Z,4.83
2023-05-03T23:44:46.479Z,5.37
2023-05-03T23:46:53.705Z,4.90
2023-05-03T23:48:56.527Z,4.40
2023-05-03T23:50:59.284Z,5.07
2023-05-03T23:53:04.637Z,4.50
2023-05-03T23:55:08.385Z,4.50
2023-05-03T23:57:11.157Z,4.50
2023-05-03T23:59:13.864Z,4.77
